PWSweather.com
Personal Weather Stations
Station Observations
KMIEASTT1
Tawas Bay, East Tawas, MI 48730

Tawas BayEast Tawas, MI 48730

Lat: 44.28, Lon: -83.48

Elevation: 600

Station Type: Davis VantagePro

http://www.tawasbayweather.com

High Low Average
Temperature 15.5°F-9.2°C 1.5°F-16.9°C 9.6°F-12.4°C
Dew Point 8.6°F-13.0°C -1.6°F-18.7°C 4.2°F-15.4°C
Winds 23.0 mph 37.0 kmh 2.0 mph 3.2 kmh 6.0 mph W9.7 kmh W
Wind Gusts 25.0 mph40.2 kmh 5.0 mph8.0 kmh 11.0 mph17.7 kmh
Humidity 87% 66% 78%
Pressure 30.56 in1034.9 mb 30.46 in1031.5 mb -
Precipitation 0.00 in0.0 mm - -
Hour Temp Dew Point Humidity Winds Wind Gusts Pressure Precip Precip Rate Daily Precip Total
12:00 AM 5.5°F-14.7°C 0.7°F-17.4°C 80% 5.0 mph W8.0 kmh W 8.0 mph12.9 kmh 30.52 in1033.5 mb 0.00 in0.0 mm 0.00 in0.0 mm 0.00 in0.0 mm
12:15 AM 9.5°F-12.5°C 5.1°F-14.9°C 82% 12.0 mph NE19.3 kmh NE 15.0 mph24.1 kmh 30.52 in1033.5 mb 0.00 in0.0 mm 0.00 in0.0 mm 0.00 in0.0 mm
12:30 AM 4.9°F-15.1°C 0.6°F-17.4°C 82% 4.0 mph W6.4 kmh W 14.0 mph22.5 kmh 30.52 in1033.5 mb 0.00 in0.0 mm 0.00 in0.0 mm 0.00 in0.0 mm
12:45 AM 4.7°F-15.2°C 0.4°F-17.6°C 82% 3.0 mph W4.8 kmh W 8.0 mph12.9 kmh 30.52 in1033.5 mb 0.00 in0.0 mm 0.00 in0.0 mm 0.00 in0.0 mm
01:00 AM 4.3°F-15.4°C 0.3°F-17.6°C 83% 3.0 mph WSW4.8 kmh WSW 5.0 mph8.0 kmh 30.51 in1033.2 mb 0.00 in0.0 mm 0.00 in0.0 mm 0.00 in0.0 mm
01:15 AM 4.2°F-15.4°C 0.2°F-17.7°C 83% 5.0 mph WNW8.0 kmh WNW 7.0 mph11.3 kmh 30.51 in1033.2 mb 0.00 in0.0 mm 0.00 in0.0 mm 0.00 in0.0 mm
01:30 AM 4.0°F-15.6°C 0.3°F-17.6°C 84% 3.0 mph WNW4.8 kmh WNW 6.0 mph9.7 kmh 30.51 in1033.2 mb 0.00 in0.0 mm 0.00 in0.0 mm 0.00 in0.0 mm
01:45 AM 3.7°F-15.7°C 0.0°F-17.8°C 84% 3.0 mph WNW4.8 kmh WNW 8.0 mph12.9 kmh 30.51 in1033.2 mb 0.00 in0.0 mm 0.00 in0.0 mm 0.00 in0.0 mm
02:00 AM 3.1°F-16.1°C -0.4°F-18.0°C 85% 2.0 mph NW3.2 kmh NW 5.0 mph8.0 kmh 30.51 in1033.2 mb 0.00 in0.0 mm 0.00 in0.0 mm 0.00 in0.0 mm
02:15 AM 2.6°F-16.3°C -0.9°F-18.3°C 85% 2.0 mph WNW3.2 kmh WNW 5.0 mph8.0 kmh 30.52 in1033.5 mb 0.00 in0.0 mm 0.00 in0.0 mm 0.00 in0.0 mm
02:30 AM 2.6°F-16.3°C -0.6°F-18.1°C 86% 4.0 mph WNW6.4 kmh WNW 6.0 mph9.7 kmh 30.52 in1033.5 mb 0.00 in0.0 mm 0.00 in0.0 mm 0.00 in0.0 mm
02:45 AM 2.5°F-16.4°C -0.7°F-18.2°C 86% 3.0 mph WNW4.8 kmh WNW 7.0 mph11.3 kmh 30.52 in1033.5 mb 0.00 in0.0 mm 0.00 in0.0 mm 0.00 in0.0 mm
03:04 AM 2.4°F-16.4°C -0.8°F-18.2°C 86% 3.0 mph WNW4.8 kmh WNW 5.0 mph8.0 kmh 30.52 in1033.5 mb 0.00 in0.0 mm 0.00 in0.0 mm 0.00 in0.0 mm
03:15 AM 2.3°F-16.5°C -0.9°F-18.3°C 86% 3.0 mph W4.8 kmh W 5.0 mph8.0 kmh 30.52 in1033.5 mb 0.00 in0.0 mm 0.00 in0.0 mm 0.00 in0.0 mm
03:30 AM 1.9°F-16.7°C -1.3°F-18.5°C 86% 3.0 mph NW4.8 kmh NW 5.0 mph8.0 kmh 30.52 in1033.5 mb 0.00 in0.0 mm 0.00 in0.0 mm 0.00 in0.0 mm
03:45 AM 1.6°F-16.9°C -1.6°F-18.7°C 86% 4.0 mph WNW6.4 kmh WNW 5.0 mph8.0 kmh 30.51 in1033.2 mb 0.00 in0.0 mm 0.00 in0.0 mm 0.00 in0.0 mm
04:00 AM 1.5°F-16.9°C -1.5°F-18.6°C 87% 3.0 mph WNW4.8 kmh WNW 5.0 mph8.0 kmh 30.51 in1033.2 mb 0.00 in0.0 mm 0.00 in0.0 mm 0.00 in0.0 mm
04:15 AM 1.5°F-16.9°C -1.5°F-18.6°C 87% 4.0 mph WNW6.4 kmh WNW 6.0 mph9.7 kmh 30.51 in1033.2 mb 0.00 in0.0 mm 0.00 in0.0 mm 0.00 in0.0 mm
04:30 AM 1.7°F-16.8°C -1.3°F-18.5°C 87% 4.0 mph WSW6.4 kmh WSW 7.0 mph11.3 kmh 30.51 in1033.2 mb 0.00 in0.0 mm 0.00 in0.0 mm 0.00 in0.0 mm
04:45 AM 2.1°F-16.6°C -0.9°F-18.3°C 87% 4.0 mph WNW6.4 kmh WNW 7.0 mph11.3 kmh 30.50 in1032.8 mb 0.00 in0.0 mm 0.00 in0.0 mm 0.00 in0.0 mm
05:00 AM 2.6°F-16.3°C -0.6°F-18.1°C 86% 4.0 mph NW6.4 kmh NW 8.0 mph12.9 kmh 30.50 in1032.8 mb 0.00 in0.0 mm 0.00 in0.0 mm 0.00 in0.0 mm
05:15 AM 2.9°F-16.2°C -0.3°F-17.9°C 86% 4.0 mph NW6.4 kmh NW 7.0 mph11.3 kmh 30.50 in1032.8 mb 0.00 in0.0 mm 0.00 in0.0 mm 0.00 in0.0 mm
05:30 AM 3.7°F-15.7°C 0.2°F-17.7°C 85% 7.0 mph WNW11.3 kmh WNW 9.0 mph14.5 kmh 30.49 in1032.5 mb 0.00 in0.0 mm 0.00 in0.0 mm 0.00 in0.0 mm
05:45 AM 4.2°F-15.4°C 0.7°F-17.4°C 85% 4.0 mph W6.4 kmh W 9.0 mph14.5 kmh 30.48 in1032.2 mb 0.00 in0.0 mm 0.00 in0.0 mm 0.00 in0.0 mm
06:00 AM 4.4°F-15.3°C 0.6°F-17.4°C 84% 4.0 mph W6.4 kmh W 10.0 mph16.1 kmh 30.47 in1031.8 mb 0.00 in0.0 mm 0.00 in0.0 mm 0.00 in0.0 mm
06:15 AM 4.2°F-15.4°C 0.2°F-17.7°C 83% 5.0 mph WSW8.0 kmh WSW 10.0 mph16.1 kmh 30.46 in1031.5 mb 0.00 in0.0 mm 0.00 in0.0 mm 0.00 in0.0 mm
06:30 AM 4.4°F-15.3°C 0.6°F-17.4°C 84% 4.0 mph NW6.4 kmh NW 7.0 mph11.3 kmh 30.47 in1031.8 mb 0.00 in0.0 mm 0.00 in0.0 mm 0.00 in0.0 mm
06:45 AM 5.7°F-14.6°C 2.2°F-16.6°C 85% 7.0 mph W11.3 kmh W 10.0 mph16.1 kmh 30.46 in1031.5 mb 0.00 in0.0 mm 0.00 in0.0 mm 0.00 in0.0 mm
07:00 AM 6.5°F-14.2°C 2.7°F-16.3°C 84% 4.0 mph W6.4 kmh W 11.0 mph17.7 kmh 30.47 in1031.8 mb 0.00 in0.0 mm 0.00 in0.0 mm 0.00 in0.0 mm
07:15 AM 6.8°F-14.0°C 3.0°F-16.1°C 84% 8.0 mph W12.9 kmh W 11.0 mph17.7 kmh 30.47 in1031.8 mb 0.00 in0.0 mm 0.00 in0.0 mm 0.00 in0.0 mm
07:30 AM 7.0°F-13.9°C 3.2°F-16.0°C 84% 7.0 mph WSW11.3 kmh WSW 9.0 mph14.5 kmh 30.47 in1031.8 mb 0.00 in0.0 mm 0.00 in0.0 mm 0.00 in0.0 mm
07:45 AM 7.3°F-13.7°C 3.5°F-15.8°C 84% 7.0 mph WSW11.3 kmh WSW 9.0 mph14.5 kmh 30.47 in1031.8 mb 0.00 in0.0 mm 0.00 in0.0 mm 0.00 in0.0 mm
08:00 AM 7.5°F-13.6°C 3.7°F-15.7°C 84% 4.0 mph WNW6.4 kmh WNW 8.0 mph12.9 kmh 30.48 in1032.2 mb 0.00 in0.0 mm 0.00 in0.0 mm 0.00 in0.0 mm
08:15 AM 7.7°F-13.5°C 3.6°F-15.8°C 83% 4.0 mph W6.4 kmh W 9.0 mph14.5 kmh 30.48 in1032.2 mb 0.00 in0.0 mm 0.00 in0.0 mm 0.00 in0.0 mm
08:30 AM 7.6°F-13.6°C 3.5°F-15.8°C 83% 5.0 mph NW8.0 kmh NW 11.0 mph17.7 kmh 30.49 in1032.5 mb 0.00 in0.0 mm 0.00 in0.0 mm 0.00 in0.0 mm
08:45 AM 7.6°F-13.6°C 3.3°F-15.9°C 82% 7.0 mph WNW11.3 kmh WNW 10.0 mph16.1 kmh 30.49 in1032.5 mb 0.00 in0.0 mm 0.00 in0.0 mm 0.00 in0.0 mm
09:00 AM 7.7°F-13.5°C 3.4°F-15.9°C 82% 6.0 mph WSW9.7 kmh WSW 8.0 mph12.9 kmh 30.49 in1032.5 mb 0.00 in0.0 mm 0.00 in0.0 mm 0.00 in0.0 mm
09:15 AM 7.8°F-13.4°C 3.2°F-16.0°C 81% 5.0 mph WNW8.0 kmh WNW 7.0 mph11.3 kmh 30.49 in1032.5 mb 0.00 in0.0 mm 0.00 in0.0 mm 0.00 in0.0 mm
09:30 AM 7.9°F-13.4°C 3.3°F-15.9°C 81% 8.0 mph NW12.9 kmh NW 12.0 mph19.3 kmh 30.49 in1032.5 mb 0.00 in0.0 mm 0.00 in0.0 mm 0.00 in0.0 mm
09:45 AM 8.1°F-13.3°C 3.5°F-15.8°C 81% 5.0 mph W8.0 kmh W 9.0 mph14.5 kmh 30.50 in1032.8 mb 0.00 in0.0 mm 0.00 in0.0 mm 0.00 in0.0 mm
10:00 AM 8.4°F-13.1°C 3.5°F-15.8°C 80% 5.0 mph NW8.0 kmh NW 9.0 mph14.5 kmh 30.50 in1032.8 mb 0.00 in0.0 mm 0.00 in0.0 mm 0.00 in0.0 mm
10:15 AM 9.3°F-12.6°C 4.1°F-15.5°C 79% 5.0 mph NW8.0 kmh NW 8.0 mph12.9 kmh 30.51 in1033.2 mb 0.00 in0.0 mm 0.00 in0.0 mm 0.00 in0.0 mm
10:30 AM 9.3°F-12.6°C 3.8°F-15.7°C 78% 7.0 mph WNW11.3 kmh WNW 11.0 mph17.7 kmh 30.51 in1033.2 mb 0.00 in0.0 mm 0.00 in0.0 mm 0.00 in0.0 mm
10:45 AM 10.0°F-12.2°C 4.5°F-15.3°C 78% 4.0 mph NW6.4 kmh NW 10.0 mph16.1 kmh 30.51 in1033.2 mb 0.00 in0.0 mm 0.00 in0.0 mm 0.00 in0.0 mm
11:00 AM 11.0°F-11.7°C 5.5°F-14.7°C 78% 5.0 mph NW8.0 kmh NW 8.0 mph12.9 kmh 30.51 in1033.2 mb 0.00 in0.0 mm 0.00 in0.0 mm 0.00 in0.0 mm
11:15 AM 11.1°F-11.6°C 5.3°F-14.8°C 77% 12.0 mph ESE19.3 kmh ESE 18.0 mph29.0 kmh 30.52 in1033.5 mb 0.00 in0.0 mm 0.00 in0.0 mm 0.00 in0.0 mm
11:30 AM 11.3°F-11.5°C 5.2°F-14.9°C 76% 14.0 mph E22.5 kmh E 18.0 mph29.0 kmh 30.51 in1033.2 mb 0.00 in0.0 mm 0.00 in0.0 mm 0.00 in0.0 mm
11:45 AM 11.4°F-11.4°C 5.0°F-15.0°C 75% 15.0 mph E24.1 kmh E 18.0 mph29.0 kmh 30.51 in1033.2 mb 0.00 in0.0 mm 0.00 in0.0 mm 0.00 in0.0 mm
12:00 PM 11.7°F-11.3°C 5.6°F-14.7°C 76% 6.0 mph NW9.7 kmh NW 16.0 mph25.7 kmh 30.51 in1033.2 mb 0.00 in0.0 mm 0.00 in0.0 mm 0.00 in0.0 mm
12:15 PM 11.6°F-11.3°C 5.5°F-14.7°C 76% 5.0 mph WNW8.0 kmh WNW 12.0 mph19.3 kmh 30.51 in1033.2 mb 0.00 in0.0 mm 0.00 in0.0 mm 0.00 in0.0 mm
12:30 PM 12.0°F-11.1°C 5.9°F-14.5°C 76% 5.0 mph NW8.0 kmh NW 11.0 mph17.7 kmh 30.50 in1032.8 mb 0.00 in0.0 mm 0.00 in0.0 mm 0.00 in0.0 mm
12:45 PM 12.3°F-10.9°C 5.6°F-14.7°C 74% 4.0 mph NW6.4 kmh NW 10.0 mph16.1 kmh 30.50 in1032.8 mb 0.00 in0.0 mm 0.00 in0.0 mm 0.00 in0.0 mm
01:00 PM 12.7°F-10.7°C 6.0°F-14.4°C 74% 3.0 mph W4.8 kmh W 7.0 mph11.3 kmh 30.50 in1032.8 mb 0.00 in0.0 mm 0.00 in0.0 mm 0.00 in0.0 mm
01:15 PM 13.1°F-10.5°C 5.8°F-14.6°C 72% 4.0 mph NW6.4 kmh NW 9.0 mph14.5 kmh 30.50 in1032.8 mb 0.00 in0.0 mm 0.00 in0.0 mm 0.00 in0.0 mm
01:30 PM 13.6°F-10.2°C 6.0°F-14.4°C 71% 3.0 mph NW4.8 kmh NW 8.0 mph12.9 kmh 30.49 in1032.5 mb 0.00 in0.0 mm 0.00 in0.0 mm 0.00 in0.0 mm
01:45 PM 13.9°F-10.1°C 5.9°F-14.5°C 70% 3.0 mph NW4.8 kmh NW 8.0 mph12.9 kmh 30.49 in1032.5 mb 0.00 in0.0 mm 0.00 in0.0 mm 0.00 in0.0 mm
02:00 PM 14.1°F-9.9°C 5.5°F-14.7°C 68% 6.0 mph NW9.7 kmh NW 15.0 mph24.1 kmh 30.49 in1032.5 mb 0.00 in0.0 mm 0.00 in0.0 mm 0.00 in0.0 mm
02:15 PM 13.9°F-10.1°C 5.3°F-14.8°C 68% 10.0 mph WNW16.1 kmh WNW 11.0 mph17.7 kmh 30.49 in1032.5 mb 0.00 in0.0 mm 0.00 in0.0 mm 0.00 in0.0 mm
02:30 PM 14.2°F-9.9°C 5.9°F-14.5°C 69% 6.0 mph NW9.7 kmh NW 11.0 mph17.7 kmh 30.49 in1032.5 mb 0.00 in0.0 mm 0.00 in0.0 mm 0.00 in0.0 mm
02:45 PM 14.5°F-9.7°C 5.9°F-14.5°C 68% 6.0 mph W9.7 kmh W 9.0 mph14.5 kmh 30.49 in1032.5 mb 0.00 in0.0 mm 0.00 in0.0 mm 0.00 in0.0 mm
03:00 PM 14.3°F-9.8°C 5.4°F-14.8°C 67% 8.0 mph NW12.9 kmh NW 13.0 mph20.9 kmh 30.50 in1032.8 mb 0.00 in0.0 mm 0.00 in0.0 mm 0.00 in0.0 mm
03:15 PM 14.4°F-9.8°C 5.1°F-14.9°C 66% 9.0 mph NW14.5 kmh NW 18.0 mph29.0 kmh 30.50 in1032.8 mb 0.00 in0.0 mm 0.00 in0.0 mm 0.00 in0.0 mm
03:30 PM 14.5°F-9.7°C 5.6°F-14.7°C 67% 8.0 mph WNW12.9 kmh WNW 13.0 mph20.9 kmh 30.50 in1032.8 mb 0.00 in0.0 mm 0.00 in0.0 mm 0.00 in0.0 mm
03:45 PM 14.6°F-9.7°C 5.7°F-14.6°C 67% 5.0 mph NW8.0 kmh NW 10.0 mph16.1 kmh 30.51 in1033.2 mb 0.00 in0.0 mm 0.00 in0.0 mm 0.00 in0.0 mm
04:00 PM 14.5°F-9.7°C 5.2°F-14.9°C 66% 4.0 mph NW6.4 kmh NW 14.0 mph22.5 kmh 30.51 in1033.2 mb 0.00 in0.0 mm 0.00 in0.0 mm 0.00 in0.0 mm
04:15 PM 14.5°F-9.7°C 5.6°F-14.7°C 67% 9.0 mph NW14.5 kmh NW 14.0 mph22.5 kmh 30.51 in1033.2 mb 0.00 in0.0 mm 0.00 in0.0 mm 0.00 in0.0 mm
04:30 PM 14.5°F-9.7°C 5.2°F-14.9°C 66% 5.0 mph NW8.0 kmh NW 13.0 mph20.9 kmh 30.52 in1033.5 mb 0.00 in0.0 mm 0.00 in0.0 mm 0.00 in0.0 mm
04:45 PM 14.4°F-9.8°C 5.5°F-14.7°C 67% 7.0 mph WNW11.3 kmh WNW 15.0 mph24.1 kmh 30.52 in1033.5 mb 0.00 in0.0 mm 0.00 in0.0 mm 0.00 in0.0 mm
05:00 PM 14.4°F-9.8°C 5.8°F-14.6°C 68% 6.0 mph NW9.7 kmh NW 16.0 mph25.7 kmh 30.52 in1033.5 mb 0.00 in0.0 mm 0.00 in0.0 mm 0.00 in0.0 mm
05:15 PM 14.4°F-9.8°C 6.1°F-14.4°C 69% 11.0 mph WNW17.7 kmh WNW 14.0 mph22.5 kmh 30.53 in1033.9 mb 0.00 in0.0 mm 0.00 in0.0 mm 0.00 in0.0 mm
05:30 PM 15.4°F-9.2°C 6.7°F-14.1°C 68% 23.0 mph ESE37.0 kmh ESE 23.0 mph37.0 kmh 30.54 in1034.2 mb 0.00 in0.0 mm 0.00 in0.0 mm 0.00 in0.0 mm
05:45 PM 15.4°F-9.2°C 7.1°F-13.8°C 69% 19.0 mph E30.6 kmh E 22.0 mph35.4 kmh 30.54 in1034.2 mb 0.00 in0.0 mm 0.00 in0.0 mm 0.00 in0.0 mm
06:00 PM 15.5°F-9.2°C 7.5°F-13.6°C 70% 16.0 mph E25.7 kmh E 25.0 mph40.2 kmh 30.54 in1034.2 mb 0.00 in0.0 mm 0.00 in0.0 mm 0.00 in0.0 mm
06:15 PM 15.5°F-9.2°C 8.1°F-13.3°C 72% 11.0 mph ENE17.7 kmh ENE 20.0 mph32.2 kmh 30.54 in1034.2 mb 0.00 in0.0 mm 0.00 in0.0 mm 0.00 in0.0 mm
06:30 PM 14.1°F-9.9°C 8.2°F-13.2°C 77% 7.0 mph W11.3 kmh W 14.0 mph22.5 kmh 30.55 in1034.5 mb 0.00 in0.0 mm 0.00 in0.0 mm 0.00 in0.0 mm
06:45 PM 13.9°F-10.1°C 8.3°F-13.2°C 78% 6.0 mph W9.7 kmh W 9.0 mph14.5 kmh 30.55 in1034.5 mb 0.00 in0.0 mm 0.00 in0.0 mm 0.00 in0.0 mm
07:00 PM 13.9°F-10.1°C 8.6°F-13.0°C 79% 10.0 mph WNW16.1 kmh WNW 10.0 mph16.1 kmh 30.56 in1034.9 mb 0.00 in0.0 mm 0.00 in0.0 mm 0.00 in0.0 mm
07:15 PM 13.7°F-10.2°C 8.1°F-13.3°C 78% 4.0 mph WSW6.4 kmh WSW 9.0 mph14.5 kmh 30.55 in1034.5 mb 0.00 in0.0 mm 0.00 in0.0 mm 0.00 in0.0 mm
07:30 PM 13.4°F-10.3°C 7.8°F-13.4°C 78% 3.0 mph WNW4.8 kmh WNW 9.0 mph14.5 kmh 30.55 in1034.5 mb 0.00 in0.0 mm 0.00 in0.0 mm 0.00 in0.0 mm
07:45 PM 13.4°F-10.3°C 8.1°F-13.3°C 79% 6.0 mph W9.7 kmh W 9.0 mph14.5 kmh 30.56 in1034.9 mb 0.00 in0.0 mm 0.00 in0.0 mm 0.00 in0.0 mm
08:00 PM 13.5°F-10.3°C 8.2°F-13.2°C 79% 8.0 mph WSW12.9 kmh WSW 8.0 mph12.9 kmh 30.55 in1034.5 mb 0.00 in0.0 mm 0.00 in0.0 mm 0.00 in0.0 mm
08:15 PM 13.5°F-10.3°C 8.2°F-13.2°C 79% 6.0 mph WSW9.7 kmh WSW 10.0 mph16.1 kmh 30.55 in1034.5 mb 0.00 in0.0 mm 0.00 in0.0 mm 0.00 in0.0 mm
08:30 PM 13.5°F-10.3°C 8.2°F-13.2°C 79% 9.0 mph WSW14.5 kmh WSW 10.0 mph16.1 kmh 30.55 in1034.5 mb 0.00 in0.0 mm 0.00 in0.0 mm 0.00 in0.0 mm
08:45 PM 13.4°F-10.3°C 8.1°F-13.3°C 79% 5.0 mph WSW8.0 kmh WSW 11.0 mph17.7 kmh 30.55 in1034.5 mb 0.00 in0.0 mm 0.00 in0.0 mm 0.00 in0.0 mm
09:00 PM 13.4°F-10.3°C 8.1°F-13.3°C 79% 7.0 mph WNW11.3 kmh WNW 10.0 mph16.1 kmh 30.55 in1034.5 mb 0.00 in0.0 mm 0.00 in0.0 mm 0.00 in0.0 mm
09:15 PM 13.4°F-10.3°C 8.1°F-13.3°C 79% 8.0 mph WSW12.9 kmh WSW 13.0 mph20.9 kmh 30.56 in1034.9 mb 0.00 in0.0 mm 0.00 in0.0 mm 0.00 in0.0 mm
09:30 PM 13.3°F-10.4°C 8.0°F-13.3°C 79% 13.0 mph WSW20.9 kmh WSW 15.0 mph24.1 kmh 30.55 in1034.5 mb 0.00 in0.0 mm 0.00 in0.0 mm 0.00 in0.0 mm
09:45 PM 13.1°F-10.5°C 7.8°F-13.4°C 79% 8.0 mph WSW12.9 kmh WSW 14.0 mph22.5 kmh 30.54 in1034.2 mb 0.00 in0.0 mm 0.00 in0.0 mm 0.00 in0.0 mm
10:00 PM 12.9°F-10.6°C 7.4°F-13.7°C 78% 7.0 mph NW11.3 kmh NW 16.0 mph25.7 kmh 30.53 in1033.9 mb 0.00 in0.0 mm 0.00 in0.0 mm 0.00 in0.0 mm
10:15 PM 12.6°F-10.8°C 7.1°F-13.8°C 78% 9.0 mph WSW14.5 kmh WSW 10.0 mph16.1 kmh 30.53 in1033.9 mb 0.00 in0.0 mm 0.00 in0.0 mm 0.00 in0.0 mm
10:30 PM 12.5°F-10.8°C 7.2°F-13.8°C 79% 9.0 mph WNW14.5 kmh WNW 14.0 mph22.5 kmh 30.53 in1033.9 mb 0.00 in0.0 mm 0.00 in0.0 mm 0.00 in0.0 mm
10:45 PM 12.4°F-10.9°C 6.9°F-13.9°C 78% 8.0 mph WSW12.9 kmh WSW 17.0 mph27.4 kmh 30.53 in1033.9 mb 0.00 in0.0 mm 0.00 in0.0 mm 0.00 in0.0 mm
11:00 PM 12.3°F-10.9°C 7.0°F-13.9°C 79% 7.0 mph WSW11.3 kmh WSW 13.0 mph20.9 kmh 30.53 in1033.9 mb 0.00 in0.0 mm 0.00 in0.0 mm 0.00 in0.0 mm
11:15 PM 12.4°F-10.9°C 7.1°F-13.8°C 79% 8.0 mph WSW12.9 kmh WSW 13.0 mph20.9 kmh 30.53 in1033.9 mb 0.00 in0.0 mm 0.00 in0.0 mm 0.00 in0.0 mm
11:30 PM 12.3°F-10.9°C 7.0°F-13.9°C 79% 6.0 mph W9.7 kmh W 12.0 mph19.3 kmh 30.53 in1033.9 mb 0.00 in0.0 mm 0.00 in0.0 mm 0.00 in0.0 mm
11:45 PM 12.3°F-10.9°C 7.0°F-13.9°C 79% 10.0 mph W16.1 kmh W 15.0 mph24.1 kmh 30.53 in1033.9 mb 0.00 in0.0 mm 0.00 in0.0 mm 0.00 in0.0 mm